Terminal Aerodrome Forecast
Issued by NWS

Home | Current Version | Previous Version | Text Only | Print | Product List | Glossary On
Versions: 1 2 3 4 5 6 7 8 9 10 11 12 13 14 15 16
000
FTUS43 KOAX 262320
TAFSNY
TAF
KSNY 262320Z 2700/2724 13010KT P6SM VCTS SCT040CB BKN060
     FM270200 18007KT P6SM BKN080
     FM270600 18008KT 5SM BR OVC010
     FM271200 23010KT P6SM SCT015=

USA.gov is the U.S. government's official web portal to all federal, state and local government web resources and services.